Markham, Minnesota
Current Conditions -  °F | °C
As of 12:31 PM on Thursday 27 Nov 2014 (Local Time) from KEVM Reporting Station
Clear Clear  
Wind Chill:   Ceiling: Unl
Heat Index:   Visibility: 10mi
Dew Point: -8°   Wind: 0mph
Humidity: 61%   Direction: NA
Pressure: 30.38"   Gusts: NA
Location:  47.3034°N, 92.2081°W
Report Text: KEVM 271831Z AUTO 00000KT 10SM CLR M16/M22 A3038 RMK AO2
Loading
Personal Weather Stations






























Interactive Weather Map New forecast layout! Learn more

10-Day Weather Forecast

Advertisements
Track Severe Weather on mobile